sensor_id;sensor_type;location;lat;lon;timestamp;pressure;altitude;pressure_sealevel;temperature;humidity
65534;BME280;53640;55.838;37.184;2023-03-22T00:01:22;98548.28;;;3.56;58.79
65534;BME280;53640;55.838;37.184;2023-03-22T00:03:49;98579.00;;;3.82;58.65
65534;BME280;53640;55.838;37.184;2023-03-22T00:06:17;98577.13;;;3.82;58.72
65534;BME280;53640;55.838;37.184;2023-03-22T00:08:47;98582.50;;;3.82;58.85
65534;BME280;53640;55.838;37.184;2023-03-22T00:11:18;98549.84;;;3.65;58.67
65534;BME280;53640;55.838;37.184;2023-03-22T00:13:44;98592.06;;;3.91;58.72
65534;BME280;53640;55.838;37.184;2023-03-22T00:16:13;98554.53;;;3.63;58.37
65534;BME280;53640;55.838;37.184;2023-03-22T00:18:40;98504.47;;;3.36;58.77
65534;BME280;53640;55.838;37.184;2023-03-22T00:21:11;98564.28;;;3.71;58.80
65534;BME280;53640;55.838;37.184;2023-03-22T00:23:40;98572.50;;;3.69;58.76
65534;BME280;53640;55.838;37.184;2023-03-22T00:26:08;98554.91;;;3.60;58.54
65534;BME280;53640;55.838;37.184;2023-03-22T00:28:37;98570.66;;;3.70;58.80
65534;BME280;53640;55.838;37.184;2023-03-22T00:31:04;98579.13;;;3.73;58.70
65534;BME280;53640;55.838;37.184;2023-03-22T00:33:33;98601.91;;;3.91;58.73
65534;BME280;53640;55.838;37.184;2023-03-22T00:36:05;98586.19;;;3.81;58.61
65534;BME280;53640;55.838;37.184;2023-03-22T00:38:32;98557.97;;;3.57;58.39
65534;BME280;53640;55.838;37.184;2023-03-22T00:41:16;98606.25;;;3.92;58.54
65534;BME280;53640;55.838;37.184;2023-03-22T00:43:45;98572.50;;;3.69;58.13
65534;BME280;53640;55.838;37.184;2023-03-22T00:46:13;98603.31;;;3.87;58.48
65534;BME280;53640;55.838;37.184;2023-03-22T00:48:39;98601.03;;;3.84;58.14
65534;BME280;53640;55.838;37.184;2023-03-22T00:51:07;98604.72;;;3.83;58.46
65534;BME280;53640;55.838;37.184;2023-03-22T00:53:35;98622.31;;;3.92;58.59
65534;BME280;53640;55.838;37.184;2023-03-22T00:56:04;98601.81;;;3.78;58.17
65534;BME280;53640;55.838;37.184;2023-03-22T00:58:39;98611.72;;;3.84;58.25
65534;BME280;53640;55.838;37.184;2023-03-22T01:01:06;98626.66;;;3.93;58.37
65534;BME280;53640;55.838;37.184;2023-03-22T01:03:33;98617.72;;;3.86;58.34
65534;BME280;53640;55.838;37.184;2023-03-22T01:06:01;98579.22;;;3.59;57.91
65534;BME280;53640;55.838;37.184;2023-03-22T01:08:28;98639.38;;;3.91;58.14
65534;BME280;53640;55.838;37.184;2023-03-22T01:10:58;98583.16;;;3.63;58.38
65534;BME280;53640;55.838;37.184;2023-03-22T01:13:26;98590.59;;;3.67;58.25
65534;BME280;53640;55.838;37.184;2023-03-22T01:15:52;98622.44;;;3.84;58.23
65534;BME280;53640;55.838;37.184;2023-03-22T01:18:19;98617.88;;;3.78;58.00
65534;BME280;53640;55.838;37.184;2023-03-22T01:20:45;98597.56;;;3.62;57.89
65534;BME280;53640;55.838;37.184;2023-03-22T01:23:12;98648.44;;;3.90;57.96
65534;BME280;53640;55.838;37.184;2023-03-22T01:25:38;98613.63;;;3.62;58.13
65534;BME280;53640;55.838;37.184;2023-03-22T01:28:05;98578.00;;;3.40;58.46
65534;BME280;53640;55.838;37.184;2023-03-22T01:30:33;98647.75;;;3.81;58.57
65534;BME280;53640;55.838;37.184;2023-03-22T01:33:00;98627.69;;;3.70;58.44
65534;BME280;53640;55.838;37.184;2023-03-22T01:35:27;98633.88;;;3.71;58.16
65534;BME280;53640;55.838;37.184;2023-03-22T01:37:54;98663.91;;;3.88;58.03
65534;BME280;53640;55.838;37.184;2023-03-22T01:40:22;98617.34;;;3.67;58.12
65534;BME280;53640;55.838;37.184;2023-03-22T01:42:49;98609.47;;;3.59;57.72
65534;BME280;53640;55.838;37.184;2023-03-22T01:45:33;98638.63;;;3.75;57.79
65534;BME280;53640;55.838;37.184;2023-03-22T01:48:24;98668.66;;;3.92;58.13
65534;BME280;53640;55.838;37.184;2023-03-22T01:51:03;98622.97;;;3.51;58.08
65534;BME280;53640;55.838;37.184;2023-03-22T01:53:50;98644.94;;;3.68;57.99
65534;BME280;53640;55.838;37.184;2023-03-22T01:56:22;98656.75;;;3.73;58.24
65534;BME280;53640;55.838;37.184;2023-03-22T01:58:51;98668.72;;;3.78;58.19
65534;BME280;53640;55.838;37.184;2023-03-22T02:01:26;98671.34;;;3.71;58.15
65534;BME280;53640;55.838;37.184;2023-03-22T02:04:03;98660.94;;;3.61;58.52
65534;BME280;53640;55.838;37.184;2023-03-22T02:06:34;98655.31;;;3.56;58.36
65534;BME280;53640;55.838;37.184;2023-03-22T02:09:12;98689.78;;;3.81;58.17
65534;BME280;53640;55.838;37.184;2023-03-22T02:11:45;98674.75;;;3.65;58.15
65534;BME280;53640;55.838;37.184;2023-03-22T02:14:41;98646.59;;;3.47;58.53
65534;BME280;53640;55.838;37.184;2023-03-22T02:29:12;98725.44;;;3.66;58.98
65534;BME280;53640;55.838;37.184;2023-03-22T02:32:02;98706.09;;;3.49;58.87
65534;BME280;53640;55.838;37.184;2023-03-22T02:40:20;98661.22;;;3.15;59.28
65534;BME280;53640;55.838;37.184;2023-03-22T02:43:00;98704.19;;;3.43;59.36
65534;BME280;53640;55.838;37.184;2023-03-22T02:48:13;98739.94;;;3.57;59.78
65534;BME280;53640;55.838;37.184;2023-03-22T02:50:43;98739.31;;;3.55;59.54
65534;BME280;53640;55.838;37.184;2023-03-22T02:53:38;98745.47;;;3.56;59.95
65534;BME280;53640;55.838;37.184;2023-03-22T02:56:19;98737.00;;;3.52;59.91
65534;BME280;53640;55.838;37.184;2023-03-22T02:58:50;98702.78;;;3.33;60.11
65534;BME280;53640;55.838;37.184;2023-03-22T03:01:50;98741.63;;;3.58;59.72
65534;BME280;53640;55.838;37.184;2023-03-22T03:04:18;98733.03;;;3.48;59.65
65534;BME280;53640;55.838;37.184;2023-03-22T03:06:47;98719.66;;;3.48;59.35
65534;BME280;53640;55.838;37.184;2023-03-22T03:09:18;98720.31;;;3.50;59.42
65534;BME280;53640;55.838;37.184;2023-03-22T03:11:51;98755.25;;;3.63;59.28
65534;BME280;53640;55.838;37.184;2023-03-22T03:14:23;98727.69;;;3.48;59.66
65534;BME280;53640;55.838;37.184;2023-03-22T03:17:05;98763.06;;;3.65;59.14
65534;BME280;53640;55.838;37.184;2023-03-22T03:19:43;98734.44;;;3.44;59.63
65534;BME280;53640;55.838;37.184;2023-03-22T03:28:28;98747.06;;;3.35;59.21
65534;BME280;53640;55.838;37.184;2023-03-22T03:30:43;98766.22;;;3.54;59.21
65534;BME280;53640;55.838;37.184;2023-03-22T03:33:15;98771.31;;;3.48;58.92
65534;BME280;53640;55.838;37.184;2023-03-22T03:35:48;98736.44;;;3.27;58.54
65534;BME280;53640;55.838;37.184;2023-03-22T03:38:18;98794.38;;;3.64;58.25
65534;BME280;53640;55.838;37.184;2023-03-22T03:40:49;98778.78;;;3.53;58.03
65534;BME280;53640;55.838;37.184;2023-03-22T03:43:18;98740.41;;;3.31;57.74
65534;BME280;53640;55.838;37.184;2023-03-22T03:45:44;98807.63;;;3.72;57.62
65534;BME280;53640;55.838;37.184;2023-03-22T03:48:20;98756.47;;;3.46;57.14
65534;BME280;53640;55.838;37.184;2023-03-22T03:50:50;98802.13;;;3.74;57.07
65534;BME280;53640;55.838;37.184;2023-03-22T03:53:17;98812.00;;;3.73;57.16
65534;BME280;53640;55.838;37.184;2023-03-22T03:55:45;98756.41;;;3.39;56.75
65534;BME280;53640;55.838;37.184;2023-03-22T03:58:14;98812.16;;;3.72;56.47
65534;BME280;53640;55.838;37.184;2023-03-22T04:00:45;98813.66;;;3.74;56.40
65534;BME280;53640;55.838;37.184;2023-03-22T04:03:31;98794.47;;;3.56;56.19
65534;BME280;53640;55.838;37.184;2023-03-22T04:06:13;98788.13;;;3.42;56.24
65534;BME280;53640;55.838;37.184;2023-03-22T04:08:47;98798.91;;;3.49;55.84
65534;BME280;53640;55.838;37.184;2023-03-22T04:11:19;98822.81;;;3.65;55.95
65534;BME280;53640;55.838;37.184;2023-03-22T04:13:49;98830.63;;;3.67;55.82
65534;BME280;53640;55.838;37.184;2023-03-22T04:16:19;98837.03;;;3.66;55.84
65534;BME280;53640;55.838;37.184;2023-03-22T04:18:51;98830.75;;;3.59;55.81
65534;BME280;53640;55.838;37.184;2023-03-22T04:21:19;98809.50;;;3.42;55.24
65534;BME280;53640;55.838;37.184;2023-03-22T04:23:56;98842.84;;;3.55;55.58
65534;BME280;53640;55.838;37.184;2023-03-22T04:26:23;98792.81;;;3.25;55.50
65534;BME280;53640;55.838;37.184;2023-03-22T04:29:08;98795.28;;;3.27;55.41
65534;BME280;53640;55.838;37.184;2023-03-22T04:31:38;98811.78;;;3.31;55.30
65534;BME280;53640;55.838;37.184;2023-03-22T04:34:15;98809.69;;;3.26;55.00
65534;BME280;53640;55.838;37.184;2023-03-22T04:36:52;98860.75;;;3.54;55.16
65534;BME280;53640;55.838;37.184;2023-03-22T04:39:42;98845.22;;;3.49;55.22
65534;BME280;53640;55.838;37.184;2023-03-22T04:42:35;98853.25;;;3.49;55.01
65534;BME280;53640;55.838;37.184;2023-03-22T04:45:22;98807.34;;;3.08;54.62
65534;BME280;53640;55.838;37.184;2023-03-22T04:47:55;98873.91;;;3.41;54.50
65534;BME280;53640;55.838;37.184;2023-03-22T04:50:23;98873.63;;;3.36;54.77
65534;BME280;53640;55.838;37.184;2023-03-22T04:52:55;98834.28;;;3.07;54.66
65534;BME280;53640;55.838;37.184;2023-03-22T04:55:28;98873.31;;;3.31;55.07
65534;BME280;53640;55.838;37.184;2023-03-22T04:57:55;98835.47;;;3.04;54.71
65534;BME280;53640;55.838;37.184;2023-03-22T05:00:23;98868.41;;;3.19;54.93
65534;BME280;53640;55.838;37.184;2023-03-22T05:02:50;98891.69;;;3.34;54.76
65534;BME280;53640;55.838;37.184;2023-03-22T05:05:25;98872.78;;;3.20;54.84
65534;BME280;53640;55.838;37.184;2023-03-22T05:07:52;98844.16;;;3.06;55.01
65534;BME280;53640;55.838;37.184;2023-03-22T05:10:19;98844.25;;;2.98;54.43
65534;BME280;53640;55.838;37.184;2023-03-22T05:12:45;98877.00;;;3.15;54.75
65534;BME280;53640;55.838;37.184;2023-03-22T05:15:32;98869.88;;;3.07;54.14
65534;BME280;53640;55.838;37.184;2023-03-22T05:18:02;98784.50;;;2.53;54.04
65534;BME280;53640;55.838;37.184;2023-03-22T05:20:35;98902.34;;;3.19;54.20
65534;BME280;53640;55.838;37.184;2023-03-22T05:23:26;98802.75;;;2.49;54.31
65534;BME280;53640;55.838;37.184;2023-03-22T05:25:57;98780.59;;;2.41;54.00
65534;BME280;53640;55.838;37.184;2023-03-22T05:28:38;98795.00;;;2.54;53.63
65534;BME280;53640;55.838;37.184;2023-03-22T05:32:06;98841.34;;;2.85;53.68
65534;BME280;53640;55.838;37.184;2023-03-22T05:34:50;98905.09;;;3.11;53.69
65534;BME280;53640;55.838;37.184;2023-03-22T05:37:53;98867.84;;;2.94;53.55
65534;BME280;53640;55.838;37.184;2023-03-22T05:41:08;98936.59;;;3.46;53.44
65534;BME280;53640;55.838;37.184;2023-03-22T05:43:42;98908.00;;;3.24;52.97
65534;BME280;53640;55.838;37.184;2023-03-22T05:46:28;98790.50;;;2.55;52.92
65534;BME280;53640;55.838;37.184;2023-03-22T05:49:24;98889.41;;;3.08;52.75
65534;BME280;53640;55.838;37.184;2023-03-22T05:52:04;98783.56;;;2.46;52.42
65534;BME280;53640;55.838;37.184;2023-03-22T05:54:55;98827.59;;;2.73;52.67
65534;BME280;53640;55.838;37.184;2023-03-22T05:57:33;98870.16;;;2.97;52.51
65534;BME280;53640;55.838;37.184;2023-03-22T06:00:00;98863.66;;;2.92;52.23
65534;BME280;53640;55.838;37.184;2023-03-22T06:02:40;98852.38;;;2.82;52.15
65534;BME280;53640;55.838;37.184;2023-03-22T06:05:08;98931.81;;;3.34;51.95
65534;BME280;53640;55.838;37.184;2023-03-22T06:07:39;98819.44;;;2.66;51.84
65534;BME280;53640;55.838;37.184;2023-03-22T06:10:15;98807.31;;;2.64;52.00
65534;BME280;53640;55.838;37.184;2023-03-22T06:12:42;98902.19;;;3.20;51.92
65534;BME280;53640;55.838;37.184;2023-03-22T06:15:23;98874.50;;;3.13;51.49
65534;BME280;53640;55.838;37.184;2023-03-22T06:18:06;98855.56;;;3.00;51.34
65534;BME280;53640;55.838;37.184;2023-03-22T06:20:38;98958.09;;;3.68;51.32
65534;BME280;53640;55.838;37.184;2023-03-22T06:23:15;98900.25;;;3.29;51.61
65534;BME280;53640;55.838;37.184;2023-03-22T06:25:44;98921.34;;;3.47;51.21
65534;BME280;53640;55.838;37.184;2023-03-22T06:28:14;98892.69;;;3.33;50.97
65534;BME280;53640;55.838;37.184;2023-03-22T06:30:48;98855.78;;;3.13;50.74
65534;BME280;53640;55.838;37.184;2023-03-22T06:33:25;98916.94;;;3.54;50.83
65534;BME280;53640;55.838;37.184;2023-03-22T06:35:58;98961.44;;;3.99;50.78
65534;BME280;53640;55.838;37.184;2023-03-22T06:38:43;98942.41;;;3.94;49.62
65534;BME280;53640;55.838;37.184;2023-03-22T06:41:10;98911.19;;;3.87;49.41
65534;BME280;53640;55.838;37.184;2023-03-22T06:43:38;98916.63;;;4.08;49.00
65534;BME280;53640;55.838;37.184;2023-03-22T06:46:19;98899.06;;;4.20;48.24
65534;BME280;53640;55.838;37.184;2023-03-22T06:48:55;98972.56;;;4.84;47.98
65534;BME280;53640;55.838;37.184;2023-03-22T06:51:24;98891.19;;;4.55;47.17
65534;BME280;53640;55.838;37.184;2023-03-22T06:53:51;98929.50;;;4.92;46.75
65534;BME280;53640;55.838;37.184;2023-03-22T06:56:18;98916.75;;;4.94;46.36
65534;BME280;53640;55.838;37.184;2023-03-22T06:58:50;98980.53;;;5.41;46.42
65534;BME280;53640;55.838;37.184;2023-03-22T07:01:18;98900.41;;;4.89;45.93
65534;BME280;53640;55.838;37.184;2023-03-22T07:03:44;98962.41;;;5.43;46.07
65534;BME280;53640;55.838;37.184;2023-03-22T07:06:14;98933.22;;;5.34;45.94
65534;BME280;53640;55.838;37.184;2023-03-22T07:08:47;98939.53;;;5.26;44.73
65534;BME280;53640;55.838;37.184;2023-03-22T07:11:18;98982.47;;;5.48;45.08
65534;BME280;53640;55.838;37.184;2023-03-22T07:13:49;98999.59;;;5.47;45.04
65534;BME280;53640;55.838;37.184;2023-03-22T07:16:20;98991.88;;;5.37;45.01
65534;BME280;53640;55.838;37.184;2023-03-22T07:18:53;98952.53;;;5.01;45.18
65534;BME280;53640;55.838;37.184;2023-03-22T07:21:21;98991.56;;;5.25;45.72
65534;BME280;53640;55.838;37.184;2023-03-22T07:23:53;98997.75;;;5.26;45.81
65534;BME280;53640;55.838;37.184;2023-03-22T07:26:26;98981.50;;;5.12;45.83
65534;BME280;53640;55.838;37.184;2023-03-22T07:28:57;98987.38;;;5.22;45.54
65534;BME280;53640;55.838;37.184;2023-03-22T07:31:27;98982.78;;;5.16;45.46
65534;BME280;53640;55.838;37.184;2023-03-22T07:34:05;98989.16;;;5.15;45.33
65534;BME280;53640;55.838;37.184;2023-03-22T07:36:40;98959.34;;;5.04;45.37
65534;BME280;53640;55.838;37.184;2023-03-22T07:39:10;98961.69;;;5.13;45.51
65534;BME280;53640;55.838;37.184;2023-03-22T07:41:43;98960.06;;;5.12;44.62
65534;BME280;53640;55.838;37.184;2023-03-22T07:44:21;98962.47;;;5.07;44.61
65534;BME280;53640;55.838;37.184;2023-03-22T07:47:16;98995.72;;;5.28;44.81
65534;BME280;53640;55.838;37.184;2023-03-22T07:49:59;98977.03;;;4.98;44.56
65534;BME280;53640;55.838;37.184;2023-03-22T07:52:29;98961.97;;;4.97;45.10
65534;BME280;53640;55.838;37.184;2023-03-22T07:54:57;98991.34;;;5.05;44.76
65534;BME280;53640;55.838;37.184;2023-03-22T07:57:23;98951.56;;;4.87;44.57
65534;BME280;53640;55.838;37.184;2023-03-22T07:59:56;99009.03;;;5.21;44.70
65534;BME280;53640;55.838;37.184;2023-03-22T08:02:26;98948.66;;;4.89;44.92
65534;BME280;53640;55.838;37.184;2023-03-22T08:04:56;98982.72;;;5.10;44.93
65534;BME280;53640;55.838;37.184;2023-03-22T08:07:41;98911.88;;;4.61;44.85
65534;BME280;53640;55.838;37.184;2023-03-22T08:10:09;98993.16;;;5.19;44.60
65534;BME280;53640;55.838;37.184;2023-03-22T08:12:38;98998.59;;;5.26;44.59
65534;BME280;53640;55.838;37.184;2023-03-22T08:15:21;99002.59;;;5.37;44.76
65534;BME280;53640;55.838;37.184;2023-03-22T08:17:48;98989.31;;;5.29;44.59
65534;BME280;53640;55.838;37.184;2023-03-22T08:20:24;99000.44;;;5.47;44.60
65534;BME280;53640;55.838;37.184;2023-03-22T08:22:55;98987.97;;;5.39;44.59
65534;BME280;53640;55.838;37.184;2023-03-22T08:25:43;98996.72;;;5.48;44.51
65534;BME280;53640;55.838;37.184;2023-03-22T08:28:11;98968.97;;;5.41;44.05
65534;BME280;53640;55.838;37.184;2023-03-22T08:30:39;99027.50;;;5.74;43.81
65534;BME280;53640;55.838;37.184;2023-03-22T08:33:06;98971.25;;;5.65;44.11
65534;BME280;53640;55.838;37.184;2023-03-22T08:35:33;98974.28;;;5.90;43.97
65534;BME280;53640;55.838;37.184;2023-03-22T08:38:00;98990.94;;;6.07;43.20
65534;BME280;53640;55.838;37.184;2023-03-22T08:40:35;99018.75;;;6.21;43.24
65534;BME280;53640;55.838;37.184;2023-03-22T08:43:03;98971.91;;;6.02;43.13
65534;BME280;53640;55.838;37.184;2023-03-22T08:45:30;98987.09;;;6.23;42.70
65534;BME280;53640;55.838;37.184;2023-03-22T08:48:07;98968.50;;;6.22;42.93
65534;BME280;53640;55.838;37.184;2023-03-22T08:50:52;99008.97;;;6.55;42.49
65534;BME280;53640;55.838;37.184;2023-03-22T08:53:25;98995.50;;;6.48;42.03
65534;BME280;53640;55.838;37.184;2023-03-22T08:56:08;99028.28;;;6.72;41.56
65534;BME280;53640;55.838;37.184;2023-03-22T08:58:45;98954.47;;;6.26;41.57
65534;BME280;53640;55.838;37.184;2023-03-22T09:01:26;99035.88;;;6.96;41.41
65534;BME280;53640;55.838;37.184;2023-03-22T09:03:57;99023.72;;;7.27;40.84
65534;BME280;53640;55.838;37.184;2023-03-22T09:06:24;98984.34;;;7.52;40.55
65534;BME280;53640;55.838;37.184;2023-03-22T09:08:52;99033.84;;;8.38;39.03
65534;BME280;53640;55.838;37.184;2023-03-22T09:11:21;98989.34;;;8.67;38.34
65534;BME280;53640;55.838;37.184;2023-03-22T09:13:49;99026.81;;;9.58;37.50
65534;BME280;53640;55.838;37.184;2023-03-22T09:16:17;99023.66;;;10.11;36.71
65534;BME280;53640;55.838;37.184;2023-03-22T09:18:47;98998.00;;;10.39;35.95
65534;BME280;53640;55.838;37.184;2023-03-22T09:21:17;98979.75;;;10.83;35.43
65534;BME280;53640;55.838;37.184;2023-03-22T09:23:57;99014.38;;;11.41;33.19
65534;BME280;53640;55.838;37.184;2023-03-22T09:26:36;99010.81;;;11.82;33.03
65534;BME280;53640;55.838;37.184;2023-03-22T09:29:08;99005.03;;;12.14;32.20
65534;BME280;53640;55.838;37.184;2023-03-22T09:31:35;98947.81;;;12.27;32.17
65534;BME280;53640;55.838;37.184;2023-03-22T09:34:27;98993.97;;;13.08;30.79
65534;BME280;53640;55.838;37.184;2023-03-22T09:36:55;98987.50;;;13.42;30.66
65534;BME280;53640;55.838;37.184;2023-03-22T09:39:25;99008.50;;;13.92;29.14
65534;BME280;53640;55.838;37.184;2023-03-22T09:41:59;99018.97;;;14.39;28.92
65534;BME280;53640;55.838;37.184;2023-03-22T09:44:32;99030.31;;;14.70;27.85
65534;BME280;53640;55.838;37.184;2023-03-22T09:47:03;98989.25;;;14.77;27.87
65534;BME280;53640;55.838;37.184;2023-03-22T09:49:35;99004.34;;;15.11;27.41
65534;BME280;53640;55.838;37.184;2023-03-22T09:52:11;98995.50;;;15.26;26.33
65534;BME280;53640;55.838;37.184;2023-03-22T09:54:40;99026.59;;;15.25;26.88
65534;BME280;53640;55.838;37.184;2023-03-22T09:57:33;99020.75;;;14.68;26.83
65534;BME280;53640;55.838;37.184;2023-03-22T10:02:49;99022.22;;;13.69;28.04
65534;BME280;53640;55.838;37.184;2023-03-22T10:05:38;99007.34;;;13.26;28.76
65534;BME280;53640;55.838;37.184;2023-03-22T10:11:01;99022.13;;;12.90;29.17
65534;BME280;53640;55.838;37.184;2023-03-22T10:16:03;98980.47;;;12.32;29.42
65534;BME280;53640;55.838;37.184;2023-03-22T10:18:35;99014.69;;;12.33;30.11
65534;BME280;53640;55.838;37.184;2023-03-22T10:21:07;99005.41;;;11.94;30.31
65534;BME280;53640;55.838;37.184;2023-03-22T10:23:42;99024.78;;;11.67;30.73
65534;BME280;53640;55.838;37.184;2023-03-22T10:26:20;98963.78;;;10.93;31.49
65534;BME280;53640;55.838;37.184;2023-03-22T10:28:59;99008.91;;;10.69;32.27
65534;BME280;53640;55.838;37.184;2023-03-22T10:31:31;99023.75;;;10.41;32.72
65534;BME280;53640;55.838;37.184;2023-03-22T10:34:06;98951.97;;;9.58;33.46
65534;BME280;53640;55.838;37.184;2023-03-22T10:36:44;98955.31;;;9.29;33.59
65534;BME280;53640;55.838;37.184;2023-03-22T10:40:06;98891.25;;;8.54;34.39
65534;BME280;53640;55.838;37.184;2023-03-22T10:46:32;98951.13;;;8.25;36.16
65534;BME280;53640;55.838;37.184;2023-03-22T10:49:26;99009.78;;;8.43;36.41
65534;BME280;53640;55.838;37.184;2023-03-22T10:51:57;98895.06;;;7.62;36.68
65534;BME280;53640;55.838;37.184;2023-03-22T10:54:29;98985.78;;;8.01;37.36
65534;BME280;53640;55.838;37.184;2023-03-22T10:56:58;98943.09;;;7.78;37.51
65534;BME280;53640;55.838;37.184;2023-03-22T10:59:46;99009.38;;;8.32;38.02
65534;BME280;53640;55.838;37.184;2023-03-22T11:02:20;98971.03;;;8.17;38.09
65534;BME280;53640;55.838;37.184;2023-03-22T11:04:53;99038.06;;;8.72;37.97
65534;BME280;53640;55.838;37.184;2023-03-22T11:07:43;99023.09;;;8.76;37.97
65534;BME280;53640;55.838;37.184;2023-03-22T11:10:32;98912.13;;;8.21;37.95
65534;BME280;53640;55.838;37.184;2023-03-22T11:13:16;98889.44;;;8.35;37.39
65534;BME280;53640;55.838;37.184;2023-03-22T11:15:54;98906.47;;;8.74;37.10
65534;BME280;53640;55.838;37.184;2023-03-22T11:18:28;98940.25;;;9.15;36.84
65534;BME280;53640;55.838;37.184;2023-03-22T11:21:04;98994.38;;;9.58;36.55
65534;BME280;53640;55.838;37.184;2023-03-22T11:23:33;98902.84;;;8.87;36.75
65534;BME280;53640;55.838;37.184;2023-03-22T11:26:12;98988.06;;;9.39;36.66
65534;BME280;53640;55.838;37.184;2023-03-22T11:28:45;98957.16;;;9.03;36.45
65534;BME280;53640;55.838;37.184;2023-03-22T11:31:15;98966.38;;;8.89;36.60
65534;BME280;53640;55.838;37.184;2023-03-22T11:36:20;98939.06;;;8.27;37.27
65534;BME280;53640;55.838;37.184;2023-03-22T11:38:56;98937.88;;;8.03;37.67
65534;BME280;53640;55.838;37.184;2023-03-22T11:41:27;98891.13;;;7.51;38.19
65534;BME280;53640;55.838;37.184;2023-03-22T11:44:39;98929.88;;;7.57;38.30
65534;BME280;53640;55.838;37.184;2023-03-22T11:46:52;99006.53;;;7.87;39.23
65534;BME280;53640;55.838;37.184;2023-03-22T11:49:23;98954.75;;;7.32;39.51
65534;BME280;53640;55.838;37.184;2023-03-22T11:51:53;98985.63;;;7.30;39.36
65534;BME280;53640;55.838;37.184;2023-03-22T11:54:30;99033.06;;;7.37;39.82
65534;BME280;53640;55.838;37.184;2023-03-22T11:57:12;99031.16;;;7.31;40.38
65534;BME280;53640;55.838;37.184;2023-03-22T11:59:55;99013.16;;;7.32;40.83
65534;BME280;53640;55.838;37.184;2023-03-22T12:02:30;98931.34;;;7.13;40.97
65534;BME280;53640;55.838;37.184;2023-03-22T12:05:10;98959.84;;;8.07;40.58
65534;BME280;53640;55.838;37.184;2023-03-22T12:07:37;99007.97;;;9.45;38.79
65534;BME280;53640;55.838;37.184;2023-03-22T12:10:16;98957.41;;;10.39;36.96
65534;BME280;53640;55.838;37.184;2023-03-22T12:12:55;99022.28;;;11.66;34.90
65534;BME280;53640;55.838;37.184;2023-03-22T12:15:28;98996.13;;;12.54;33.58
65534;BME280;53640;55.838;37.184;2023-03-22T12:18:11;99009.38;;;13.02;32.94
65534;BME280;53640;55.838;37.184;2023-03-22T12:20:59;98998.97;;;12.99;31.95
65534;BME280;53640;55.838;37.184;2023-03-22T12:23:30;99015.09;;;12.77;31.79
65534;BME280;53640;55.838;37.184;2023-03-22T12:31:25;98990.63;;;11.24;32.95
65534;BME280;53640;55.838;37.184;2023-03-22T12:33:57;99020.34;;;10.64;34.19
65534;BME280;53640;55.838;37.184;2023-03-22T12:36:45;98994.97;;;9.85;34.96
65534;BME280;53640;55.838;37.184;2023-03-22T12:39:22;98974.88;;;9.24;35.95
65534;BME280;53640;55.838;37.184;2023-03-22T12:41:54;98991.47;;;8.96;36.50
65534;BME280;53640;55.838;37.184;2023-03-22T12:44:29;98960.16;;;8.50;37.07
65534;BME280;53640;55.838;37.184;2023-03-22T12:47:04;98997.03;;;8.56;37.13
65534;BME280;53640;55.838;37.184;2023-03-22T12:52:36;98992.38;;;8.25;37.64
65534;BME280;53640;55.838;37.184;2023-03-22T12:55:05;98997.16;;;8.23;37.36
65534;BME280;53640;55.838;37.184;2023-03-22T12:57:33;98966.28;;;7.99;37.73
65534;BME280;53640;55.838;37.184;2023-03-22T13:00:05;99002.75;;;8.28;37.78
65534;BME280;53640;55.838;37.184;2023-03-22T13:02:36;98914.31;;;7.79;37.67
65534;BME280;53640;55.838;37.184;2023-03-22T13:05:05;98972.69;;;8.31;37.62
65534;BME280;53640;55.838;37.184;2023-03-22T13:25:58;98936.56;;;9.84;34.52
65534;BME280;53640;55.838;37.184;2023-03-22T13:28:26;98895.63;;;9.37;34.66
65534;BME280;53640;55.838;37.184;2023-03-22T13:30:55;98979.28;;;9.75;34.93
65534;BME280;53640;55.838;37.184;2023-03-22T13:33:30;98968.03;;;9.53;34.94
65534;BME280;53640;55.838;37.184;2023-03-22T13:36:24;98926.75;;;9.15;35.27
65534;BME280;53640;55.838;37.184;2023-03-22T13:38:59;98962.19;;;9.25;35.12
65534;BME280;53640;55.838;37.184;2023-03-22T13:44:56;98939.59;;;8.88;35.40
65534;BME280;53640;55.838;37.184;2023-03-22T13:47:44;98970.91;;;8.95;35.45
65534;BME280;53640;55.838;37.184;2023-03-22T13:50:27;98929.81;;;8.62;35.83
65534;BME280;53640;55.838;37.184;2023-03-22T13:53:19;98965.41;;;8.77;35.97
65534;BME280;53640;55.838;37.184;2023-03-22T13:56:26;98959.22;;;8.70;36.36
65534;BME280;53640;55.838;37.184;2023-03-22T13:58:53;98933.19;;;8.50;36.25
65534;BME280;53640;55.838;37.184;2023-03-22T14:03:50;98908.78;;;8.32;36.14
65534;BME280;53640;55.838;37.184;2023-03-22T14:06:24;98935.06;;;8.43;36.12
65534;BME280;53640;55.838;37.184;2023-03-22T14:08:57;98907.13;;;8.18;36.10
65534;BME280;53640;55.838;37.184;2023-03-22T14:12:44;98955.84;;;8.36;35.80
65534;BME280;53640;55.838;37.184;2023-03-22T14:14:46;98914.69;;;7.96;35.61
65534;BME280;53640;55.838;37.184;2023-03-22T14:17:30;98964.41;;;8.06;35.87
65534;BME280;53640;55.838;37.184;2023-03-22T14:20:01;98959.03;;;7.93;36.21
65534;BME280;53640;55.838;37.184;2023-03-22T14:22:36;98954.09;;;7.83;36.21
65534;BME280;53640;55.838;37.184;2023-03-22T14:25:06;98921.19;;;7.61;36.55
65534;BME280;53640;55.838;37.184;2023-03-22T14:27:35;98947.88;;;7.70;36.43
65534;BME280;53640;55.838;37.184;2023-03-22T14:30:03;98939.63;;;7.58;36.62
65534;BME280;53640;55.838;37.184;2023-03-22T14:32:30;98907.31;;;7.38;36.92
65534;BME280;53640;55.838;37.184;2023-03-22T14:35:16;98925.97;;;7.46;36.97
65534;BME280;53640;55.838;37.184;2023-03-22T14:37:46;98938.56;;;7.52;37.13
65534;BME280;53640;55.838;37.184;2023-03-22T14:40:28;98902.75;;;7.32;37.24
65534;BME280;53640;55.838;37.184;2023-03-22T14:43:11;98875.22;;;7.03;37.30
65534;BME280;53640;55.838;37.184;2023-03-22T14:45:40;98948.31;;;7.47;37.27
65534;BME280;53640;55.838;37.184;2023-03-22T14:48:30;98944.41;;;7.49;37.88
65534;BME280;53640;55.838;37.184;2023-03-22T14:50:57;98942.94;;;7.40;37.60
65534;BME280;53640;55.838;37.184;2023-03-22T14:53:38;98958.03;;;7.41;37.51